Hackberry, Louisiana
Current Conditions -  °F | °C
As of 2:55 AM on Monday 20 Oct 2014 (Local Time) from KUXL Reporting Station
Clear Clear  
Wind Chill: 62°   Ceiling: Unl
Heat Index: 62°   Visibility: 10mi
Dew Point: 52°   Wind: 3mph
Humidity: 70%   Direction: 40°NE
Pressure: 30.05"   Gusts: NA
Location:  30°N, 93.34°W
Report Text: KUXL 200755Z AUTO 04003KT 10SM CLR 17/11 A3005 RMK AO2 T01680112
Loading
Personal Weather Stations






























Interactive Weather Map
Tropical Storm Tracking
New forecast layout! Learn more

10-Day Weather Forecast

Advertisements
Track Severe Weather on mobile